sensor_id;sensor_type;location;lat;lon;timestamp;temperature;humidity
69006;SHT31;56061;51.748;19.620;2022-09-09T00:05:14;13.40;84.36
69006;SHT31;56061;51.748;19.620;2022-09-09T00:07:51;13.44;84.47
69006;SHT31;56061;51.748;19.620;2022-09-09T00:10:27;13.44;84.30
69006;SHT31;56061;51.748;19.620;2022-09-09T00:13:01;13.43;84.36
69006;SHT31;56061;51.748;19.620;2022-09-09T00:16:04;13.44;84.51
69006;SHT31;56061;51.748;19.620;2022-09-09T00:21:18;13.41;84.63
69006;SHT31;56061;51.748;19.620;2022-09-09T00:24:04;13.39;84.70
69006;SHT31;56061;51.748;19.620;2022-09-09T00:26:46;13.38;84.73
69006;SHT31;56061;51.748;19.620;2022-09-09T00:29:31;13.40;84.95
69006;SHT31;56061;51.748;19.620;2022-09-09T00:32:17;13.39;84.90
69006;SHT31;56061;51.748;19.620;2022-09-09T00:34:49;13.34;85.03
69006;SHT31;56061;51.748;19.620;2022-09-09T00:37:20;13.31;85.13
69006;SHT31;56061;51.748;19.620;2022-09-09T00:39:55;13.28;85.13
69006;SHT31;56061;51.748;19.620;2022-09-09T00:48:22;13.32;85.40
69006;SHT31;56061;51.748;19.620;2022-09-09T00:51:15;13.37;85.52
69006;SHT31;56061;51.748;19.620;2022-09-09T00:54:07;13.40;85.51
69006;SHT31;56061;51.748;19.620;2022-09-09T00:59:52;13.32;85.50
69006;SHT31;56061;51.748;19.620;2022-09-09T01:18:04;13.31;85.93
69006;SHT31;56061;51.748;19.620;2022-09-09T01:20:41;13.31;85.70
69006;SHT31;56061;51.748;19.620;2022-09-09T01:23:35;13.28;85.66
69006;SHT31;56061;51.748;19.620;2022-09-09T01:26:33;13.28;85.86
69006;SHT31;56061;51.748;19.620;2022-09-09T01:29:11;13.33;85.98
69006;SHT31;56061;51.748;19.620;2022-09-09T01:34:27;13.44;85.83
69006;SHT31;56061;51.748;19.620;2022-09-09T01:37:02;13.46;85.74
69006;SHT31;56061;51.748;19.620;2022-09-09T01:39:34;13.48;85.72
69006;SHT31;56061;51.748;19.620;2022-09-09T01:42:03;13.42;85.54
69006;SHT31;56061;51.748;19.620;2022-09-09T01:44:34;13.36;85.75
69006;SHT31;56061;51.748;19.620;2022-09-09T01:47:02;13.40;85.94
69006;SHT31;56061;51.748;19.620;2022-09-09T01:49:29;13.40;85.73
69006;SHT31;56061;51.748;19.620;2022-09-09T01:51:58;13.35;85.67
69006;SHT31;56061;51.748;19.620;2022-09-09T01:54:26;13.35;85.96
69006;SHT31;56061;51.748;19.620;2022-09-09T02:00:16;13.46;86.05
69006;SHT31;56061;51.748;19.620;2022-09-09T02:05:49;13.42;86.02
69006;SHT31;56061;51.748;19.620;2022-09-09T02:11:33;13.50;85.93
69006;SHT31;56061;51.748;19.620;2022-09-09T02:14:01;13.54;85.96
69006;SHT31;56061;51.748;19.620;2022-09-09T02:16:37;13.59;85.99
69006;SHT31;56061;51.748;19.620;2022-09-09T02:19:16;13.62;85.97
69006;SHT31;56061;51.748;19.620;2022-09-09T02:21:54;13.63;85.90
69006;SHT31;56061;51.748;19.620;2022-09-09T02:24:23;13.63;85.89
69006;SHT31;56061;51.748;19.620;2022-09-09T02:26:53;13.64;85.86
69006;SHT31;56061;51.748;19.620;2022-09-09T02:29:25;13.66;85.70
69006;SHT31;56061;51.748;19.620;2022-09-09T02:31:58;13.68;85.71
69006;SHT31;56061;51.748;19.620;2022-09-09T02:34:31;13.68;85.79
69006;SHT31;56061;51.748;19.620;2022-09-09T02:37:08;13.70;85.78
69006;SHT31;56061;51.748;19.620;2022-09-09T02:39:37;13.73;85.81
69006;SHT31;56061;51.748;19.620;2022-09-09T02:42:04;13.75;85.66
69006;SHT31;56061;51.748;19.620;2022-09-09T02:44:31;13.76;85.60
69006;SHT31;56061;51.748;19.620;2022-09-09T02:52:58;13.75;85.79
69006;SHT31;56061;51.748;19.620;2022-09-09T02:55:41;13.77;85.85
69006;SHT31;56061;51.748;19.620;2022-09-09T02:58:19;13.78;85.86
69006;SHT31;56061;51.748;19.620;2022-09-09T03:00:46;13.81;85.89
69006;SHT31;56061;51.748;19.620;2022-09-09T03:03:15;13.82;85.82
69006;SHT31;56061;51.748;19.620;2022-09-09T03:05:44;13.82;85.86
69006;SHT31;56061;51.748;19.620;2022-09-09T03:08:11;13.79;85.82
69006;SHT31;56061;51.748;19.620;2022-09-09T03:10:39;13.78;85.92
69006;SHT31;56061;51.748;19.620;2022-09-09T03:13:06;13.80;85.99
69006;SHT31;56061;51.748;19.620;2022-09-09T03:15:33;13.83;85.95
69006;SHT31;56061;51.748;19.620;2022-09-09T03:18:00;13.82;85.94
69006;SHT31;56061;51.748;19.620;2022-09-09T03:20:27;13.81;85.97
69006;SHT31;56061;51.748;19.620;2022-09-09T03:22:56;13.80;86.04
69006;SHT31;56061;51.748;19.620;2022-09-09T03:25:24;13.78;86.15
69006;SHT31;56061;51.748;19.620;2022-09-09T03:27:52;13.75;86.22
69006;SHT31;56061;51.748;19.620;2022-09-09T03:30:21;13.75;86.19
69006;SHT31;56061;51.748;19.620;2022-09-09T03:32:50;13.76;86.15
69006;SHT31;56061;51.748;19.620;2022-09-09T03:35:17;13.78;86.16
69006;SHT31;56061;51.748;19.620;2022-09-09T03:37:45;13.81;86.10
69006;SHT31;56061;51.748;19.620;2022-09-09T03:40:11;13.83;86.17
69006;SHT31;56061;51.748;19.620;2022-09-09T03:42:39;13.84;86.18
69006;SHT31;56061;51.748;19.620;2022-09-09T03:45:07;13.84;86.20
69006;SHT31;56061;51.748;19.620;2022-09-09T03:47:36;13.84;86.17
69006;SHT31;56061;51.748;19.620;2022-09-09T03:50:04;13.83;86.13
69006;SHT31;56061;51.748;19.620;2022-09-09T03:52:35;13.83;86.20
69006;SHT31;56061;51.748;19.620;2022-09-09T03:55:07;13.84;86.25
69006;SHT31;56061;51.748;19.620;2022-09-09T03:57:34;13.87;86.36
69006;SHT31;56061;51.748;19.620;2022-09-09T04:00:05;13.93;86.26
69006;SHT31;56061;51.748;19.620;2022-09-09T04:02:33;13.94;86.28
69006;SHT31;56061;51.748;19.620;2022-09-09T04:05:00;13.93;86.21
69006;SHT31;56061;51.748;19.620;2022-09-09T04:07:27;13.92;86.28
69006;SHT31;56061;51.748;19.620;2022-09-09T04:09:54;13.92;86.21
69006;SHT31;56061;51.748;19.620;2022-09-09T04:12:21;13.95;86.22
69006;SHT31;56061;51.748;19.620;2022-09-09T04:14:48;13.96;86.30
69006;SHT31;56061;51.748;19.620;2022-09-09T04:17:15;13.99;86.32
69006;SHT31;56061;51.748;19.620;2022-09-09T04:19:41;14.04;86.37
69006;SHT31;56061;51.748;19.620;2022-09-09T04:22:08;14.11;86.35
69006;SHT31;56061;51.748;19.620;2022-09-09T04:24:35;14.14;86.24
69006;SHT31;56061;51.748;19.620;2022-09-09T04:27:02;14.13;86.31
69006;SHT31;56061;51.748;19.620;2022-09-09T04:29:28;14.14;86.30
69006;SHT31;56061;51.748;19.620;2022-09-09T04:31:55;14.15;86.38
69006;SHT31;56061;51.748;19.620;2022-09-09T04:34:21;14.19;86.31
69006;SHT31;56061;51.748;19.620;2022-09-09T04:36:48;14.23;86.41
69006;SHT31;56061;51.748;19.620;2022-09-09T04:39:15;14.28;86.39
69006;SHT31;56061;51.748;19.620;2022-09-09T04:41:41;14.33;86.31
69006;SHT31;56061;51.748;19.620;2022-09-09T04:44:08;14.36;86.30
69006;SHT31;56061;51.748;19.620;2022-09-09T04:46:35;14.35;86.44
69006;SHT31;56061;51.748;19.620;2022-09-09T04:49:02;14.33;86.54
69006;SHT31;56061;51.748;19.620;2022-09-09T04:51:29;14.34;86.58
69006;SHT31;56061;51.748;19.620;2022-09-09T04:53:57;14.37;86.59
69006;SHT31;56061;51.748;19.620;2022-09-09T04:56:23;14.41;86.66
69006;SHT31;56061;51.748;19.620;2022-09-09T04:58:52;14.45;86.68
69006;SHT31;56061;51.748;19.620;2022-09-09T05:01:21;14.51;86.62
69006;SHT31;56061;51.748;19.620;2022-09-09T05:03:49;14.55;86.65
69006;SHT31;56061;51.748;19.620;2022-09-09T05:06:17;14.59;86.70
69006;SHT31;56061;51.748;19.620;2022-09-09T05:08:47;14.63;86.69
69006;SHT31;56061;51.748;19.620;2022-09-09T05:11:17;14.67;86.65
69006;SHT31;56061;51.748;19.620;2022-09-09T05:13:50;14.72;86.65
69006;SHT31;56061;51.748;19.620;2022-09-09T05:16:17;14.76;86.71
69006;SHT31;56061;51.748;19.620;2022-09-09T05:18:45;14.80;86.80
69006;SHT31;56061;51.748;19.620;2022-09-09T05:21:13;14.83;86.82
69006;SHT31;56061;51.748;19.620;2022-09-09T05:23:45;14.87;86.89
69006;SHT31;56061;51.748;19.620;2022-09-09T05:26:13;14.93;86.89
69006;SHT31;56061;51.748;19.620;2022-09-09T05:28:45;14.98;86.80
69006;SHT31;56061;51.748;19.620;2022-09-09T05:31:13;15.04;86.79
69006;SHT31;56061;51.748;19.620;2022-09-09T05:33:43;15.09;86.77
69006;SHT31;56061;51.748;19.620;2022-09-09T05:36:13;15.14;86.78
69006;SHT31;56061;51.748;19.620;2022-09-09T05:38:43;15.16;86.84
69006;SHT31;56061;51.748;19.620;2022-09-09T05:41:10;15.18;86.86
69006;SHT31;56061;51.748;19.620;2022-09-09T05:43:38;15.22;86.86
69006;SHT31;56061;51.748;19.620;2022-09-09T05:46:05;15.27;86.91
69006;SHT31;56061;51.748;19.620;2022-09-09T05:48:35;15.34;86.90
69006;SHT31;56061;51.748;19.620;2022-09-09T05:51:05;15.41;86.88
69006;SHT31;56061;51.748;19.620;2022-09-09T05:53:35;15.47;86.87
69006;SHT31;56061;51.748;19.620;2022-09-09T05:56:04;15.51;86.93
69006;SHT31;56061;51.748;19.620;2022-09-09T05:58:33;15.56;86.93
69006;SHT31;56061;51.748;19.620;2022-09-09T06:01:02;15.60;86.99
69006;SHT31;56061;51.748;19.620;2022-09-09T06:03:31;15.67;86.92
69006;SHT31;56061;51.748;19.620;2022-09-09T06:05:58;15.71;86.91
69006;SHT31;56061;51.748;19.620;2022-09-09T06:08:32;15.77;86.97
69006;SHT31;56061;51.748;19.620;2022-09-09T06:11:01;15.78;86.95
69006;SHT31;56061;51.748;19.620;2022-09-09T06:13:33;15.82;86.95
69006;SHT31;56061;51.748;19.620;2022-09-09T06:16:00;15.82;86.98
69006;SHT31;56061;51.748;19.620;2022-09-09T06:18:27;15.87;87.00
69006;SHT31;56061;51.748;19.620;2022-09-09T06:20:54;15.89;87.06
69006;SHT31;56061;51.748;19.620;2022-09-09T06:23:27;15.92;87.19
69006;SHT31;56061;51.748;19.620;2022-09-09T06:26:28;15.97;87.23
69006;SHT31;56061;51.748;19.620;2022-09-09T06:28:56;16.04;87.17
69006;SHT31;56061;51.748;19.620;2022-09-09T06:31:27;16.10;87.24
69006;SHT31;56061;51.748;19.620;2022-09-09T06:33:57;16.19;87.19
69006;SHT31;56061;51.748;19.620;2022-09-09T06:36:26;16.24;87.08
69006;SHT31;56061;51.748;19.620;2022-09-09T06:38:54;16.31;86.98
69006;SHT31;56061;51.748;19.620;2022-09-09T06:41:23;16.39;86.96
69006;SHT31;56061;51.748;19.620;2022-09-09T06:43:52;16.47;86.98
69006;SHT31;56061;51.748;19.620;2022-09-09T06:46:21;16.57;86.85
69006;SHT31;56061;51.748;19.620;2022-09-09T06:48:54;16.63;86.68
69006;SHT31;56061;51.748;19.620;2022-09-09T06:51:24;16.67;86.60
69006;SHT31;56061;51.748;19.620;2022-09-09T06:53:54;16.71;86.43
69006;SHT31;56061;51.748;19.620;2022-09-09T06:56:25;16.68;86.35
69006;SHT31;56061;51.748;19.620;2022-09-09T06:58:55;16.69;86.40
69006;SHT31;56061;51.748;19.620;2022-09-09T07:01:31;16.72;86.39
69006;SHT31;56061;51.748;19.620;2022-09-09T07:04:01;16.79;86.33
69006;SHT31;56061;51.748;19.620;2022-09-09T07:06:34;16.88;86.36
69006;SHT31;56061;51.748;19.620;2022-09-09T07:09:05;17.00;86.14
69006;SHT31;56061;51.748;19.620;2022-09-09T07:11:38;17.06;85.93
69006;SHT31;56061;51.748;19.620;2022-09-09T07:14:07;17.10;85.83
69006;SHT31;56061;51.748;19.620;2022-09-09T07:16:35;17.16;85.81
69006;SHT31;56061;51.748;19.620;2022-09-09T07:19:03;17.27;85.61
69006;SHT31;56061;51.748;19.620;2022-09-09T07:21:31;17.37;85.44
69006;SHT31;56061;51.748;19.620;2022-09-09T07:23:59;17.50;85.23
69006;SHT31;56061;51.748;19.620;2022-09-09T07:26:28;17.59;84.86
69006;SHT31;56061;51.748;19.620;2022-09-09T07:28:56;17.65;84.60
69006;SHT31;56061;51.748;19.620;2022-09-09T07:31:25;17.65;84.33
69006;SHT31;56061;51.748;19.620;2022-09-09T07:33:57;17.62;84.26
69006;SHT31;56061;51.748;19.620;2022-09-09T07:38:59;17.67;84.08
69006;SHT31;56061;51.748;19.620;2022-09-09T07:41:37;17.70;84.08
69006;SHT31;56061;51.748;19.620;2022-09-09T07:44:14;17.74;83.91
69006;SHT31;56061;51.748;19.620;2022-09-09T07:46:44;17.77;83.67
69006;SHT31;56061;51.748;19.620;2022-09-09T07:49:12;17.79;83.70
69006;SHT31;56061;51.748;19.620;2022-09-09T07:51:40;17.78;83.35
69006;SHT31;56061;51.748;19.620;2022-09-09T07:54:10;17.78;83.27
69006;SHT31;56061;51.748;19.620;2022-09-09T07:56:40;17.80;83.10
69006;SHT31;56061;51.748;19.620;2022-09-09T07:59:07;17.83;83.26
69006;SHT31;56061;51.748;19.620;2022-09-09T08:01:36;17.89;83.17
69006;SHT31;56061;51.748;19.620;2022-09-09T08:04:07;17.98;83.07
69006;SHT31;56061;51.748;19.620;2022-09-09T08:06:42;18.05;82.90
69006;SHT31;56061;51.748;19.620;2022-09-09T08:09:24;18.12;82.75
69006;SHT31;56061;51.748;19.620;2022-09-09T08:11:53;18.16;82.48
69006;SHT31;56061;51.748;19.620;2022-09-09T08:14:22;18.22;82.63
69006;SHT31;56061;51.748;19.620;2022-09-09T08:16:57;18.35;82.46
69006;SHT31;56061;51.748;19.620;2022-09-09T08:19:24;18.48;82.13
69006;SHT31;56061;51.748;19.620;2022-09-09T08:21:50;18.57;81.98
69006;SHT31;56061;51.748;19.620;2022-09-09T08:24:17;18.66;81.87
69006;SHT31;56061;51.748;19.620;2022-09-09T08:26:54;18.72;81.58
69006;SHT31;56061;51.748;19.620;2022-09-09T08:29:22;18.78;80.97
69006;SHT31;56061;51.748;19.620;2022-09-09T08:31:50;18.82;80.97
69006;SHT31;56061;51.748;19.620;2022-09-09T08:34:20;18.89;81.06
69006;SHT31;56061;51.748;19.620;2022-09-09T08:39:35;19.19;80.48
69006;SHT31;56061;51.748;19.620;2022-09-09T08:44:58;19.34;79.38
69006;SHT31;56061;51.748;19.620;2022-09-09T08:50:56;19.53;78.40
69006;SHT31;56061;51.748;19.620;2022-09-09T08:53:28;19.61;78.14
69006;SHT31;56061;51.748;19.620;2022-09-09T08:56:12;19.67;77.71
69006;SHT31;56061;51.748;19.620;2022-09-09T08:58:48;19.79;77.53
69006;SHT31;56061;51.748;19.620;2022-09-09T09:01:23;19.82;76.66
69006;SHT31;56061;51.748;19.620;2022-09-09T09:10:36;19.95;75.78
69006;SHT31;56061;51.748;19.620;2022-09-09T09:13:24;20.09;75.66
69006;SHT31;56061;51.748;19.620;2022-09-09T09:16:29;20.20;75.79
69006;SHT31;56061;51.748;19.620;2022-09-09T09:19:20;20.26;75.49
69006;SHT31;56061;51.748;19.620;2022-09-09T09:24:50;20.14;75.26
69006;SHT31;56061;51.748;19.620;2022-09-09T09:28:18;20.08;75.16
69006;SHT31;56061;51.748;19.620;2022-09-09T09:33:38;19.98;75.02
69006;SHT31;56061;51.748;19.620;2022-09-09T09:36:19;19.97;74.85
69006;SHT31;56061;51.748;19.620;2022-09-09T09:39:00;19.99;74.83
69006;SHT31;56061;51.748;19.620;2022-09-09T09:41:51;20.05;74.47
69006;SHT31;56061;51.748;19.620;2022-09-09T09:44:21;20.09;74.36
69006;SHT31;56061;51.748;19.620;2022-09-09T09:47:10;20.15;74.06
69006;SHT31;56061;51.748;19.620;2022-09-09T09:49:57;20.24;73.54
69006;SHT31;56061;51.748;19.620;2022-09-09T09:52:39;20.23;73.70
69006;SHT31;56061;51.748;19.620;2022-09-09T09:55:12;20.16;74.23
69006;SHT31;56061;51.748;19.620;2022-09-09T09:57:40;20.04;74.32
69006;SHT31;56061;51.748;19.620;2022-09-09T10:00:22;19.97;74.08
69006;SHT31;56061;51.748;19.620;2022-09-09T10:02:49;19.92;74.20
69006;SHT31;56061;51.748;19.620;2022-09-09T10:05:23;19.95;73.90
69006;SHT31;56061;51.748;19.620;2022-09-09T10:08:01;20.07;73.92
69006;SHT31;56061;51.748;19.620;2022-09-09T10:14:17;20.31;72.54
69006;SHT31;56061;51.748;19.620;2022-09-09T10:16:50;20.41;72.37
69006;SHT31;56061;51.748;19.620;2022-09-09T10:19:53;20.52;71.95
69006;SHT31;56061;51.748;19.620;2022-09-09T10:25:43;20.53;71.27
69006;SHT31;56061;51.748;19.620;2022-09-09T10:38:16;20.71;70.26
69006;SHT31;56061;51.748;19.620;2022-09-09T10:43:39;20.66;70.40
69006;SHT31;56061;51.748;19.620;2022-09-09T10:47:07;20.66;72.17
69006;SHT31;56061;51.748;19.620;2022-09-09T10:50:36;20.75;72.54
69006;SHT31;56061;51.748;19.620;2022-09-09T10:53:36;20.89;71.49
69006;SHT31;56061;51.748;19.620;2022-09-09T10:56:51;20.95;70.85
69006;SHT31;56061;51.748;19.620;2022-09-09T10:59:28;21.06;70.65
69006;SHT31;56061;51.748;19.620;2022-09-09T11:02:03;21.14;70.39
69006;SHT31;56061;51.748;19.620;2022-09-09T11:16:20;21.41;69.19
69006;SHT31;56061;51.748;19.620;2022-09-09T11:21:50;21.53;68.95
69006;SHT31;56061;51.748;19.620;2022-09-09T11:39:54;21.65;65.76
69006;SHT31;56061;51.748;19.620;2022-09-09T11:42:35;21.65;65.64
69006;SHT31;56061;51.748;19.620;2022-09-09T11:45:19;21.66;66.15
69006;SHT31;56061;51.748;19.620;2022-09-09T11:47:55;21.63;66.40
69006;SHT31;56061;51.748;19.620;2022-09-09T11:53:05;21.50;66.42
69006;SHT31;56061;51.748;19.620;2022-09-09T11:58:38;21.38;66.06
69006;SHT31;56061;51.748;19.620;2022-09-09T12:01:13;21.37;66.37
69006;SHT31;56061;51.748;19.620;2022-09-09T12:12:34;21.42;65.78
69006;SHT31;56061;51.748;19.620;2022-09-09T12:18:14;21.73;66.12
69006;SHT31;56061;51.748;19.620;2022-09-09T12:32:10;22.61;63.13
69006;SHT31;56061;51.748;19.620;2022-09-09T12:34:59;22.70;63.10
69006;SHT31;56061;51.748;19.620;2022-09-09T12:37:35;22.73;62.52
69006;SHT31;56061;51.748;19.620;2022-09-09T12:40:22;22.73;62.17
69006;SHT31;56061;51.748;19.620;2022-09-09T12:42:52;22.77;62.26
69006;SHT31;56061;51.748;19.620;2022-09-09T12:45:22;22.80;62.28
69006;SHT31;56061;51.748;19.620;2022-09-09T12:50:57;22.83;62.60
69006;SHT31;56061;51.748;19.620;2022-09-09T12:53:34;22.88;62.26
69006;SHT31;56061;51.748;19.620;2022-09-09T12:56:20;22.89;61.56
69006;SHT31;56061;51.748;19.620;2022-09-09T12:58:55;22.92;61.56
69006;SHT31;56061;51.748;19.620;2022-09-09T13:01:26;22.96;61.69
69006;SHT31;56061;51.748;19.620;2022-09-09T13:04:26;23.04;61.57
69006;SHT31;56061;51.748;19.620;2022-09-09T13:06:53;23.13;60.77
69006;SHT31;56061;51.748;19.620;2022-09-09T13:09:20;23.19;60.48
69006;SHT31;56061;51.748;19.620;2022-09-09T13:11:56;23.30;60.87
69006;SHT31;56061;51.748;19.620;2022-09-09T13:14:28;23.47;60.23
69006;SHT31;56061;51.748;19.620;2022-09-09T13:17:01;23.65;60.50
69006;SHT31;56061;51.748;19.620;2022-09-09T13:19:32;23.76;59.77
69006;SHT31;56061;51.748;19.620;2022-09-09T13:22:28;23.82;59.55
69006;SHT31;56061;51.748;19.620;2022-09-09T13:28:38;23.85;59.47
69006;SHT31;56061;51.748;19.620;2022-09-09T13:31:04;23.91;59.20
69006;SHT31;56061;51.748;19.620;2022-09-09T13:33:50;23.87;58.80
69006;SHT31;56061;51.748;19.620;2022-09-09T13:36:17;23.84;58.49
69006;SHT31;56061;51.748;19.620;2022-09-09T13:39:15;23.76;58.27
69006;SHT31;56061;51.748;19.620;2022-09-09T13:41:45;23.72;58.50
69006;SHT31;56061;51.748;19.620;2022-09-09T13:44:17;23.76;59.54
69006;SHT31;56061;51.748;19.620;2022-09-09T13:47:06;23.73;59.63
69006;SHT31;56061;51.748;19.620;2022-09-09T13:49:45;23.63;58.92
69006;SHT31;56061;51.748;19.620;2022-09-09T13:52:34;23.36;58.32
69006;SHT31;56061;51.748;19.620;2022-09-09T13:55:00;23.20;59.13
69006;SHT31;56061;51.748;19.620;2022-09-09T13:57:27;23.10;59.37
69006;SHT31;56061;51.748;19.620;2022-09-09T13:59:53;23.00;59.51
69006;SHT31;56061;51.748;19.620;2022-09-09T14:02:36;22.95;60.29
69006;SHT31;56061;51.748;19.620;2022-09-09T14:05:05;22.93;60.12
69006;SHT31;56061;51.748;19.620;2022-09-09T14:07:31;22.93;59.73
69006;SHT31;56061;51.748;19.620;2022-09-09T14:09:58;22.88;59.44
69006;SHT31;56061;51.748;19.620;2022-09-09T14:12:26;22.87;59.30
69006;SHT31;56061;51.748;19.620;2022-09-09T14:15:13;22.87;59.63
69006;SHT31;56061;51.748;19.620;2022-09-09T14:17:40;22.83;60.17
69006;SHT31;56061;51.748;19.620;2022-09-09T14:20:07;22.77;60.70
69006;SHT31;56061;51.748;19.620;2022-09-09T14:22:56;22.68;61.83
69006;SHT31;56061;51.748;19.620;2022-09-09T14:25:28;22.60;62.27
69006;SHT31;56061;51.748;19.620;2022-09-09T14:27:54;22.53;61.64
69006;SHT31;56061;51.748;19.620;2022-09-09T14:30:22;22.45;62.49
69006;SHT31;56061;51.748;19.620;2022-09-09T14:32:57;22.34;62.58
69006;SHT31;56061;51.748;19.620;2022-09-09T14:35:24;22.20;62.40
69006;SHT31;56061;51.748;19.620;2022-09-09T14:37:50;22.10;62.67
69006;SHT31;56061;51.748;19.620;2022-09-09T14:40:17;22.03;63.48
69006;SHT31;56061;51.748;19.620;2022-09-09T14:42:44;21.97;64.59
69006;SHT31;56061;51.748;19.620;2022-09-09T14:45:23;21.91;64.74
69006;SHT31;56061;51.748;19.620;2022-09-09T14:47:51;21.87;65.36
69006;SHT31;56061;51.748;19.620;2022-09-09T14:50:18;21.85;65.31
69006;SHT31;56061;51.748;19.620;2022-09-09T14:52:46;21.84;65.46
69006;SHT31;56061;51.748;19.620;2022-09-09T14:55:13;21.88;65.86
69006;SHT31;56061;51.748;19.620;2022-09-09T14:58:02;21.97;66.05
69006;SHT31;56061;51.748;19.620;2022-09-09T15:00:30;22.04;66.23
69006;SHT31;56061;51.748;19.620;2022-09-09T15:02:56;22.04;66.35
69006;SHT31;56061;51.748;19.620;2022-09-09T15:05:23;22.01;66.31
69006;SHT31;56061;51.748;19.620;2022-09-09T15:08:15;22.08;66.49
69006;SHT31;56061;51.748;19.620;2022-09-09T15:10:42;22.16;66.36
69006;SHT31;56061;51.748;19.620;2022-09-09T15:13:10;22.14;65.80
69006;SHT31;56061;51.748;19.620;2022-09-09T15:15:46;22.09;65.58
69006;SHT31;56061;51.748;19.620;2022-09-09T15:18:13;21.99;65.81
69006;SHT31;56061;51.748;19.620;2022-09-09T15:20:44;21.88;66.05
69006;SHT31;56061;51.748;19.620;2022-09-09T15:23:12;21.79;66.43
69006;SHT31;56061;51.748;19.620;2022-09-09T15:26:02;21.71;66.93
69006;SHT31;56061;51.748;19.620;2022-09-09T15:28:28;21.64;67.24
69006;SHT31;56061;51.748;19.620;2022-09-09T15:30:57;21.56;67.22
69006;SHT31;56061;51.748;19.620;2022-09-09T15:33:25;21.48;67.25
69006;SHT31;56061;51.748;19.620;2022-09-09T15:36:13;21.39;67.29
69006;SHT31;56061;51.748;19.620;2022-09-09T15:38:51;21.31;67.83
69006;SHT31;56061;51.748;19.620;2022-09-09T15:41:19;21.25;68.29
69006;SHT31;56061;51.748;19.620;2022-09-09T15:43:57;21.19;68.65
69006;SHT31;56061;51.748;19.620;2022-09-09T15:46:34;21.12;68.81
69006;SHT31;56061;51.748;19.620;2022-09-09T15:52:08;21.00;68.68
69006;SHT31;56061;51.748;19.620;2022-09-09T15:54:37;20.94;68.59
69006;SHT31;56061;51.748;19.620;2022-09-09T15:57:07;20.86;68.87
69006;SHT31;56061;51.748;19.620;2022-09-09T15:59:44;20.75;68.91
69006;SHT31;56061;51.748;19.620;2022-09-09T16:02:11;20.64;69.21
69006;SHT31;56061;51.748;19.620;2022-09-09T16:04:38;20.56;69.62
69006;SHT31;56061;51.748;19.620;2022-09-09T16:07:04;20.45;69.74
69006;SHT31;56061;51.748;19.620;2022-09-09T16:09:32;20.36;69.95
69006;SHT31;56061;51.748;19.620;2022-09-09T16:14:53;20.29;71.35
69006;SHT31;56061;51.748;19.620;2022-09-09T16:17:19;20.28;71.81
69006;SHT31;56061;51.748;19.620;2022-09-09T16:20:07;20.25;71.85
69006;SHT31;56061;51.748;19.620;2022-09-09T16:22:34;20.19;71.60
69006;SHT31;56061;51.748;19.620;2022-09-09T16:25:01;20.13;72.02
69006;SHT31;56061;51.748;19.620;2022-09-09T16:27:27;20.07;72.16
69006;SHT31;56061;51.748;19.620;2022-09-09T16:30:00;19.97;72.08
69006;SHT31;56061;51.748;19.620;2022-09-09T16:32:34;19.88;72.42
69006;SHT31;56061;51.748;19.620;2022-09-09T16:35:01;19.81;72.87
69006;SHT31;56061;51.748;19.620;2022-09-09T16:37:28;19.75;72.98
69006;SHT31;56061;51.748;19.620;2022-09-09T16:39:55;19.71;73.12
69006;SHT31;56061;51.748;19.620;2022-09-09T16:42:31;19.65;73.29
69006;SHT31;56061;51.748;19.620;2022-09-09T16:45:04;19.60;73.46
69006;SHT31;56061;51.748;19.620;2022-09-09T16:47:31;19.53;73.59
69006;SHT31;56061;51.748;19.620;2022-09-09T16:49:58;19.47;73.81
69006;SHT31;56061;51.748;19.620;2022-09-09T16:52:24;19.42;73.92
69006;SHT31;56061;51.748;19.620;2022-09-09T16:55:04;19.35;74.09
69006;SHT31;56061;51.748;19.620;2022-09-09T16:57:31;19.28;74.38
69006;SHT31;56061;51.748;19.620;2022-09-09T16:59:58;19.23;74.65
69006;SHT31;56061;51.748;19.620;2022-09-09T17:02:25;19.20;74.92
69006;SHT31;56061;51.748;19.620;2022-09-09T17:04:52;19.15;75.10
69006;SHT31;56061;51.748;19.620;2022-09-09T17:07:18;19.10;75.25
69006;SHT31;56061;51.748;19.620;2022-09-09T17:09:45;19.01;75.39
69006;SHT31;56061;51.748;19.620;2022-09-09T17:12:11;18.92;75.74
69006;SHT31;56061;51.748;19.620;2022-09-09T17:14:38;18.83;75.98
69006;SHT31;56061;51.748;19.620;2022-09-09T17:17:04;18.75;76.20
69006;SHT31;56061;51.748;19.620;2022-09-09T17:19:51;18.67;76.47
69006;SHT31;56061;51.748;19.620;2022-09-09T17:22:17;18.61;76.71
69006;SHT31;56061;51.748;19.620;2022-09-09T17:24:46;18.53;76.99
69006;SHT31;56061;51.748;19.620;2022-09-09T17:27:13;18.46;77.20
69006;SHT31;56061;51.748;19.620;2022-09-09T17:29:39;18.36;77.53
69006;SHT31;56061;51.748;19.620;2022-09-09T17:32:06;18.26;77.85
69006;SHT31;56061;51.748;19.620;2022-09-09T17:34:33;18.15;78.17
69006;SHT31;56061;51.748;19.620;2022-09-09T17:37:01;18.08;78.43
69006;SHT31;56061;51.748;19.620;2022-09-09T17:39:27;18.02;78.60
69006;SHT31;56061;51.748;19.620;2022-09-09T17:41:55;17.99;78.72
69006;SHT31;56061;51.748;19.620;2022-09-09T17:44:21;17.95;79.01
69006;SHT31;56061;51.748;19.620;2022-09-09T17:46:48;17.92;79.11
69006;SHT31;56061;51.748;19.620;2022-09-09T17:49:16;17.89;79.27
69006;SHT31;56061;51.748;19.620;2022-09-09T17:51:43;17.84;79.57
69006;SHT31;56061;51.748;19.620;2022-09-09T17:54:12;17.75;79.99
69006;SHT31;56061;51.748;19.620;2022-09-09T17:56:42;17.66;80.25
69006;SHT31;56061;51.748;19.620;2022-09-09T17:59:11;17.59;80.66
69006;SHT31;56061;51.748;19.620;2022-09-09T18:01:40;17.53;81.00
69006;SHT31;56061;51.748;19.620;2022-09-09T18:04:11;17.48;81.44
69006;SHT31;56061;51.748;19.620;2022-09-09T18:06:44;17.42;81.47
69006;SHT31;56061;51.748;19.620;2022-09-09T18:09:15;17.39;81.68
69006;SHT31;56061;51.748;19.620;2022-09-09T18:11:45;17.37;81.73
69006;SHT31;56061;51.748;19.620;2022-09-09T18:14:19;17.33;81.83
69006;SHT31;56061;51.748;19.620;2022-09-09T18:16:49;17.31;81.95
69006;SHT31;56061;51.748;19.620;2022-09-09T18:19:18;17.26;82.14
69006;SHT31;56061;51.748;19.620;2022-09-09T18:21:48;17.19;82.41
69006;SHT31;56061;51.748;19.620;2022-09-09T18:24:17;17.15;82.53
69006;SHT31;56061;51.748;19.620;2022-09-09T18:26:46;17.11;82.58
69006;SHT31;56061;51.748;19.620;2022-09-09T18:29:15;17.07;82.68
69006;SHT31;56061;51.748;19.620;2022-09-09T18:31:46;17.04;82.85
69006;SHT31;56061;51.748;19.620;2022-09-09T18:34:14;17.01;82.95